Time;durP1;ratioP1;P1;durP2;ratioP2;P2;SDS_P1;SDS_P2;PMS_P1;PMS_P2;Temp;Humidity;BMP_temperature;BMP_pressure;BME280_temperature;BME280_humidity;BME280_pressure;Samples;Min_cycle;Max_cycle;Signal;HPM_P1;HPM_P2
2023/05/20 00:00:03;;;;;;;1999.90;999.90;;;15.20;98.70;;;;;;5034988;28;20929;-70
2023/05/20 00:02:29;;;;;;;1999.90;999.90;;;15.10;99.80;;;;;;5034752;28;20171;-70
2023/05/20 00:04:54;;;;;;;1999.90;999.90;;;15.10;99.90;;;;;;5035017;28;20408;-71
2023/05/20 00:07:20;;;;;;;1999.90;999.90;;;15.10;99.90;;;;;;5034905;28;20704;-71
2023/05/20 00:09:45;;;;;;;1999.90;999.90;;;15.00;99.90;;;;;;5034938;28;20177;-71
2023/05/20 00:12:11;;;;;;;1999.90;999.90;;;15.00;99.90;;;;;;5034484;28;20662;-71
2023/05/20 00:14:37;;;;;;;1999.90;999.90;;;15.00;99.90;;;;;;5034798;28;20176;-71
2023/05/20 00:17:02;;;;;;;1999.90;999.90;;;14.90;99.90;;;;;;5034776;28;20177;-71
2023/05/20 00:19:28;;;;;;;1999.90;999.90;;;14.90;99.90;;;;;;5034740;28;20179;-70
2023/05/20 00:21:56;;;;;;;1999.90;999.90;;;14.90;99.90;;;;;;5034226;28;20720;-70
2023/05/20 00:24:21;;;;;;;1999.90;999.90;;;14.80;99.90;;;;;;5034695;28;20249;-70
2023/05/20 00:26:47;;;;;;;1999.90;999.90;;;14.80;99.90;;;;;;5034441;28;20440;-70
2023/05/20 00:29:13;;;;;;;1999.90;999.90;;;14.70;99.90;;;;;;5034571;28;20163;-70
2023/05/20 00:31:38;;;;;;;1999.90;999.90;;;14.70;99.90;;;;;;5034129;28;20549;-70
2023/05/20 00:34:04;;;;;;;1999.90;999.90;;;14.70;99.90;;;;;;5034558;28;20168;-70
2023/05/20 00:36:30;;;;;;;1999.90;999.90;;;14.60;99.90;;;;;;5034419;28;20179;-70
2023/05/20 00:38:55;;;;;;;1999.90;999.90;;;14.50;99.90;;;;;;5034201;28;20177;-70
2023/05/20 00:41:21;;;;;;;1999.90;999.90;;;14.50;99.90;;;;;;5033932;28;20791;-70
2023/05/20 00:43:47;;;;;;;1999.90;999.90;;;14.50;99.90;;;;;;5034259;28;20179;-70
2023/05/20 00:46:13;;;;;;;1999.90;999.90;;;14.40;99.90;;;;;;5034143;28;20296;-70
2023/05/20 00:48:42;;;;;;;1999.90;999.90;;;14.40;99.90;;;;;;5034187;28;20259;-70
2023/05/20 00:51:09;;;;;;;1999.90;999.90;;;14.30;99.90;;;;;;5033695;28;20449;-71
2023/05/20 00:53:35;;;;;;;1999.90;999.90;;;14.30;99.90;;;;;;5034071;28;20411;-70
2023/05/20 00:56:02;;;;;;;1999.90;999.90;;;14.30;99.90;;;;;;5034034;28;20470;-70
2023/05/20 00:58:28;;;;;;;1999.90;999.90;;;14.30;99.90;;;;;;5033936;28;20410;-70
2023/05/20 01:00:54;;;;;;;1999.90;999.90;;;14.30;99.90;;;;;;5033581;28;20430;-70
2023/05/20 01:03:19;;;;;;;1999.90;999.90;;;14.20;99.90;;;;;;5033854;28;20566;-70
2023/05/20 01:05:45;;;;;;;1999.90;999.90;;;14.20;99.90;;;;;;5033831;28;20206;-70
2023/05/20 01:08:11;;;;;;;1999.90;999.90;;;14.20;99.90;;;;;;5033793;28;20166;-70
2023/05/20 01:10:41;;;;;;;1999.90;999.90;;;14.20;99.90;;;;;;5033496;28;20248;-70
2023/05/20 01:13:11;;;;;;;1999.90;999.90;;;14.10;99.90;;;;;;5033662;28;20421;-70
2023/05/20 01:15:40;;;;;;;1999.90;999.90;;;14.10;99.90;;;;;;5033620;28;20924;-70
2023/05/20 01:18:09;;;;;;;1999.90;999.90;;;14.10;99.90;;;;;;5033653;28;20410;-70
2023/05/20 01:20:36;;;;;;;1999.90;999.90;;;14.00;99.90;;;;;;5033505;28;20419;-70
2023/05/20 01:23:03;;;;;;;1999.90;999.90;;;14.00;99.90;;;;;;5033223;28;20784;-70
2023/05/20 01:25:28;;;;;;;1999.90;999.90;;;14.00;99.90;;;;;;5033422;28;20834;-70
2023/05/20 01:27:59;;;;;;;1999.90;999.90;;;14.00;99.90;;;;;;5033429;28;20445;-70
2023/05/20 01:30:37;;;;;;;1999.90;999.90;;;14.00;99.90;;;;;;5033326;28;20240;-70
2023/05/20 01:33:10;;;;;;;1999.90;999.90;;;13.90;99.90;;;;;;5032497;28;20777;-70
2023/05/20 01:35:38;;;;;;;1999.90;999.90;;;13.90;99.90;;;;;;5033321;28;20500;-70
2023/05/20 01:38:05;;;;;;;1999.90;999.90;;;13.80;99.90;;;;;;5033193;28;20415;-70
2023/05/20 01:40:33;;;;;;;1999.90;999.90;;;13.70;99.90;;;;;;5033119;28;20434;-70
2023/05/20 01:43:00;;;;;;;1999.90;999.90;;;13.60;99.90;;;;;;5032834;28;20413;-70
2023/05/20 01:45:26;;;;;;;1999.90;999.90;;;13.50;99.90;;;;;;5033039;28;20503;-70
2023/05/20 01:47:51;;;;;;;1999.90;999.90;;;13.40;99.90;;;;;;5033056;28;20492;-70
2023/05/20 01:50:17;;;;;;;1999.90;999.90;;;13.40;99.90;;;;;;5032834;28;20204;-70
2023/05/20 01:52:43;;;;;;;1999.90;999.90;;;13.40;99.90;;;;;;5032650;28;20413;-70
2023/05/20 01:55:09;;;;;;;1999.90;999.90;;;13.30;99.90;;;;;;5033196;28;20578;-70
2023/05/20 01:57:34;;;;;;;1999.90;999.90;;;13.30;99.90;;;;;;5032821;28;20591;-70
2023/05/20 02:00:00;;;;;;;1999.90;999.90;;;13.30;99.90;;;;;;5032794;28;20307;-70
2023/05/20 02:02:26;;;;;;;1999.90;999.90;;;13.30;99.90;;;;;;5032513;28;20226;-70
2023/05/20 02:04:53;;;;;;;1999.90;999.90;;;13.20;99.90;;;;;;5032796;28;20183;-70
2023/05/20 02:07:19;;;;;;;1999.90;999.90;;;13.20;99.90;;;;;;5032784;28;20200;-70
2023/05/20 02:09:45;;;;;;;1999.90;999.90;;;13.20;99.90;;;;;;5032660;28;20413;-70
2023/05/20 02:12:15;;;;;;;1999.90;999.90;;;13.10;99.90;;;;;;5032220;28;20188;-70
2023/05/20 02:14:42;;;;;;;1999.90;999.90;;;13.00;99.90;;;;;;5032588;28;20421;-70
2023/05/20 02:17:08;;;;;;;1999.90;999.90;;;13.00;99.90;;;;;;5032460;28;20417;-70
2023/05/20 02:19:33;;;;;;;1999.90;999.90;;;13.00;99.90;;;;;;5032614;28;20403;-70
2023/05/20 02:21:59;;;;;;;1999.90;999.90;;;12.90;99.90;;;;;;5033445;28;20285;-69
2023/05/20 02:24:24;;;;;;;1999.90;999.90;;;12.90;99.90;;;;;;5033523;28;20175;-70
2023/05/20 02:26:52;;;;;;;1999.90;999.90;;;13.00;99.90;;;;;;5033191;28;20213;-70
2023/05/20 02:29:20;;;;;;;1999.90;999.90;;;12.90;99.90;;;;;;5033374;28;20182;-70
2023/05/20 02:31:46;;;;;;;1999.90;999.90;;;12.90;99.90;;;;;;5032945;28;20431;-70
2023/05/20 02:34:12;;;;;;;1999.90;999.90;;;12.80;99.90;;;;;;5033305;28;20513;-70
2023/05/20 02:36:38;;;;;;;1999.90;999.90;;;12.80;99.90;;;;;;5032973;28;20444;-70
2023/05/20 02:39:03;;;;;;;1999.90;999.90;;;12.80;99.90;;;;;;5033006;28;20662;-70
2023/05/20 02:41:29;;;;;;;1999.90;999.90;;;12.80;99.90;;;;;;5032337;28;20220;-70
2023/05/20 02:43:54;;;;;;;1999.90;999.90;;;12.80;99.90;;;;;;5032798;28;20179;-70
2023/05/20 02:46:20;;;;;;;1999.90;999.90;;;12.80;99.90;;;;;;5032257;28;20193;-70
2023/05/20 02:48:45;;;;;;;1999.90;999.90;;;12.70;99.90;;;;;;5032633;28;20177;-69
2023/05/20 02:51:11;;;;;;;1999.90;999.90;;;12.70;99.90;;;;;;5032265;28;20207;-70
2023/05/20 02:53:36;;;;;;;1999.90;999.90;;;12.80;99.90;;;;;;5032805;28;20177;-70
2023/05/20 02:56:03;;;;;;;1999.90;999.90;;;12.80;99.90;;;;;;5032932;28;20178;-70
2023/05/20 02:58:29;;;;;;;1999.90;999.90;;;12.80;99.90;;;;;;5032932;28;20174;-70
2023/05/20 03:00:56;;;;;;;1999.90;999.90;;;12.70;99.90;;;;;;5032291;28;20425;-70
2023/05/20 03:03:22;;;;;;;1999.90;999.90;;;12.70;99.90;;;;;;5032800;28;20191;-70
2023/05/20 03:05:49;;;;;;;1999.90;999.90;;;12.60;99.90;;;;;;5032626;28;20450;-70
2023/05/20 03:08:14;;;;;;;1999.90;999.90;;;12.60;99.90;;;;;;5032623;28;20413;-69
2023/05/20 03:10:40;;;;;;;1999.90;999.90;;;12.60;99.90;;;;;;5032406;28;20433;-70
2023/05/20 03:13:10;;;;;;;1999.90;999.90;;;12.60;99.90;;;;;;5032286;28;20174;-70
2023/05/20 03:15:39;;;;;;;1999.90;999.90;;;12.60;99.90;;;;;;5032530;28;20182;-70
2023/05/20 03:18:07;;;;;;;1999.90;999.90;;;12.50;99.90;;;;;;5032532;28;20441;-70
2023/05/20 03:20:37;;;;;;;1999.90;999.90;;;12.50;99.90;;;;;;5032589;28;20472;-70
2023/05/20 03:23:06;;;;;;;1999.90;999.90;;;12.50;99.90;;;;;;5032449;28;20500;-70
2023/05/20 03:25:31;;;;;;;1999.90;999.90;;;12.40;99.90;;;;;;5032772;28;20415;-70
2023/05/20 03:27:58;;;;;;;1999.90;999.90;;;12.50;99.90;;;;;;5032303;28;20460;-70
2023/05/20 03:30:24;;;;;;;1999.90;999.90;;;12.40;99.90;;;;;;5032653;28;20197;-70
2023/05/20 03:32:50;;;;;;;1999.90;999.90;;;12.40;99.90;;;;;;5031366;28;20411;-70
2023/05/20 03:35:15;;;;;;;1999.90;999.90;;;12.40;99.90;;;;;;5031751;28;20944;-70
2023/05/20 03:37:41;;;;;;;1999.90;999.90;;;12.40;99.90;;;;;;5031588;28;20411;-70
2023/05/20 03:40:09;;;;;;;1999.90;999.90;;;12.30;99.90;;;;;;5031520;28;20252;-70
2023/05/20 03:42:35;;;;;;;1999.90;999.90;;;12.30;99.90;;;;;;5031190;28;20170;-70
2023/05/20 03:45:01;;;;;;;1999.90;999.90;;;12.30;99.90;;;;;;5032581;28;20414;-70
2023/05/20 03:47:27;;;;;;;1999.90;999.90;;;12.30;99.90;;;;;;5032225;28;20451;-70
2023/05/20 03:49:52;;;;;;;1999.90;999.90;;;12.40;99.90;;;;;;5032259;28;20667;-70
2023/05/20 03:52:18;;;;;;;1999.90;999.90;;;12.40;99.90;;;;;;5032191;28;20419;-70
2023/05/20 03:54:44;;;;;;;1999.90;999.90;;;12.30;99.90;;;;;;5032313;28;20162;-70
2023/05/20 03:57:09;;;;;;;1999.90;999.90;;;12.30;99.90;;;;;;5034517;28;20662;-69
2023/05/20 03:59:36;;;;;;;1999.90;999.90;;;12.30;99.90;;;;;;5036057;28;20201;-70
2023/05/20 04:02:02;;;;;;;1999.90;999.90;;;12.30;99.90;;;;;;5035744;28;20194;-70
2023/05/20 04:04:28;;;;;;;1999.90;999.90;;;12.30;99.90;;;;;;5035679;28;20475;-70
2023/05/20 04:06:55;;;;;;;1999.90;999.90;;;12.30;99.90;;;;;;5035600;28;20543;-70
2023/05/20 04:09:21;;;;;;;1999.90;999.90;;;12.30;99.90;;;;;;5035635;28;20416;-70
2023/05/20 04:11:46;;;;;;;1999.90;999.90;;;12.30;99.90;;;;;;5035235;28;20505;-70
2023/05/20 04:14:12;;;;;;;1999.90;999.90;;;12.30;99.90;;;;;;5036000;28;20432;-69
2023/05/20 04:16:38;;;;;;;1999.90;999.90;;;12.30;99.90;;;;;;5035936;28;20236;-70
2023/05/20 04:19:03;;;;;;;1999.90;999.90;;;12.30;99.90;;;;;;5035681;28;20663;-71
2023/05/20 04:21:30;;;;;;;1999.90;999.90;;;12.30;99.90;;;;;;5035234;28;20186;-70
2023/05/20 04:23:56;;;;;;;1999.90;999.90;;;12.30;99.90;;;;;;5035412;28;20174;-70
2023/05/20 04:26:21;;;;;;;1999.90;999.90;;;12.30;99.90;;;;;;5035067;28;20450;-70
2023/05/20 04:28:48;;;;;;;1999.90;999.90;;;12.30;99.90;;;;;;5035565;28;20163;-70
2023/05/20 04:31:14;;;;;;;1999.90;999.90;;;12.30;99.90;;;;;;5035067;28;20195;-70
2023/05/20 04:33:40;;;;;;;1999.90;999.90;;;12.40;99.90;;;;;;5035530;28;20404;-70
2023/05/20 04:36:10;;;;;;;1999.90;999.90;;;12.40;99.90;;;;;;5035442;28;20446;-70
2023/05/20 04:38:36;;;;;;;1999.90;999.90;;;12.50;99.90;;;;;;5035416;28;20932;-70
2023/05/20 04:41:02;;;;;;;1999.90;999.90;;;12.50;99.90;;;;;;5034597;28;20438;-70
2023/05/20 04:43:32;;;;;;;1999.90;999.90;;;12.60;99.90;;;;;;5034311;28;20864;-70
2023/05/20 04:46:00;;;;;;;1999.90;999.90;;;12.70;99.90;;;;;;5034389;28;20442;-70
2023/05/20 04:48:26;;;;;;;1999.90;999.90;;;12.70;99.90;;;;;;5034142;28;20825;-70
2023/05/20 04:50:53;;;;;;;1999.90;999.90;;;12.80;99.90;;;;;;5034149;28;20441;-70
2023/05/20 04:53:18;;;;;;;1999.90;999.90;;;12.80;99.90;;;;;;5033972;28;20444;-70
2023/05/20 04:55:45;;;;;;;1999.90;999.90;;;12.90;99.90;;;;;;5034209;28;20442;-70
2023/05/20 04:58:16;;;;;;;1999.90;999.90;;;13.00;99.90;;;;;;5034121;28;20645;-70
2023/05/20 05:00:43;;;;;;;1999.90;999.90;;;13.10;99.90;;;;;;5033935;28;20447;-70
2023/05/20 05:03:09;;;;;;;1999.90;999.90;;;13.10;99.90;;;;;;5033667;28;20412;-70
2023/05/20 05:05:35;;;;;;;1999.90;999.90;;;13.20;99.90;;;;;;5033865;28;20413;-70
2023/05/20 05:08:02;;;;;;;1999.90;999.90;;;13.20;99.90;;;;;;5032683;28;20171;-70
2023/05/20 05:10:28;;;;;;;1999.90;999.90;;;13.30;99.90;;;;;;5033741;28;20458;-70
2023/05/20 05:12:54;;;;;;;1999.90;999.90;;;13.40;99.90;;;;;;5033542;28;20434;-70
2023/05/20 05:15:20;;;;;;;1999.90;999.90;;;13.40;99.90;;;;;;5033771;28;20399;-70
2023/05/20 05:17:45;;;;;;;1999.90;999.90;;;13.40;99.90;;;;;;5033679;28;20165;-70
2023/05/20 05:20:11;;;;;;;1999.90;999.90;;;13.50;99.90;;;;;;5033577;28;20270;-70
2023/05/20 05:22:38;;;;;;;1999.90;999.90;;;13.50;99.90;;;;;;5033192;28;20171;-70
2023/05/20 05:25:05;;;;;;;1999.90;999.90;;;13.60;99.90;;;;;;5033695;28;20579;-70
2023/05/20 05:27:31;;;;;;;1999.90;999.90;;;13.60;99.90;;;;;;5033319;28;20530;-70
2023/05/20 05:29:56;;;;;;;1999.90;999.90;;;13.70;99.90;;;;;;5033303;28;20491;-70
2023/05/20 05:32:22;;;;;;;1999.90;999.90;;;13.80;99.90;;;;;;5033073;28;20891;-70
2023/05/20 05:34:48;;;;;;;1999.90;999.90;;;13.80;99.90;;;;;;5033264;28;20169;-70
2023/05/20 05:37:13;;;;;;;1999.90;999.90;;;13.80;99.90;;;;;;5033237;28;20211;-70
2023/05/20 05:39:39;;;;;;;1999.90;999.90;;;13.80;99.90;;;;;;5033169;28;20169;-70
2023/05/20 05:42:05;;;;;;;1999.90;999.90;;;13.80;99.90;;;;;;5032929;28;20220;-70
2023/05/20 05:44:30;;;;;;;1999.90;999.90;;;13.80;99.90;;;;;;5033235;28;20665;-70
2023/05/20 05:46:56;;;;;;;1999.90;999.90;;;13.90;99.90;;;;;;5033043;28;20705;-70
2023/05/20 05:49:22;;;;;;;1999.90;999.90;;;14.00;99.90;;;;;;5033048;28;20175;-70
2023/05/20 05:51:48;;;;;;;1999.90;999.90;;;14.10;99.90;;;;;;5032513;28;20201;-70
2023/05/20 05:54:14;;;;;;;1999.90;999.90;;;14.10;99.90;;;;;;5032816;28;20168;-70
2023/05/20 05:56:39;;;;;;;1999.90;999.90;;;14.30;99.90;;;;;;5033042;28;20413;-70
2023/05/20 05:59:05;;;;;;;1999.90;999.90;;;14.30;99.90;;;;;;5032778;28;20180;-70
2023/05/20 06:01:31;;;;;;;1999.90;999.90;;;14.40;99.90;;;;;;5032475;28;20192;-70
2023/05/20 06:03:56;;;;;;;1999.90;999.90;;;14.50;99.90;;;;;;5032767;28;20176;-70
2023/05/20 06:06:22;;;;;;;1999.90;999.90;;;14.60;99.90;;;;;;5032584;28;20266;-70
2023/05/20 06:08:47;;;;;;;1999.90;999.90;;;14.70;99.90;;;;;;5032819;28;20172;-70
2023/05/20 06:11:13;;;;;;;1999.90;999.90;;;14.60;99.90;;;;;;5032366;28;20193;-70
2023/05/20 06:13:39;;;;;;;1999.90;999.90;;;14.50;99.90;;;;;;5032570;28;20676;-70
2023/05/20 06:16:04;;;;;;;1999.90;999.90;;;14.60;99.90;;;;;;5032605;28;20307;-70
2023/05/20 06:18:30;;;;;;;1999.90;999.90;;;14.60;99.90;;;;;;5032543;28;20176;-70
2023/05/20 06:20:56;;;;;;;1999.90;999.90;;;14.60;99.90;;;;;;5031977;28;20257;-70
2023/05/20 06:23:22;;;;;;;1999.90;999.90;;;14.70;99.90;;;;;;5032294;28;20180;-70
2023/05/20 06:25:49;;;;;;;1999.90;999.90;;;14.70;99.90;;;;;;5032450;28;20500;-70
2023/05/20 06:28:14;;;;;;;1999.90;999.90;;;14.90;99.90;;;;;;5032358;28;20168;-70
2023/05/20 06:30:40;;;;;;;1999.90;999.90;;;15.00;99.90;;;;;;5032455;28;20434;-70
2023/05/20 06:33:06;;;;;;;1999.90;999.90;;;15.00;99.90;;;;;;5032025;28;20165;-70
2023/05/20 06:35:35;;;;;;;1999.90;999.90;;;15.20;99.90;;;;;;5032210;28;20978;-70
2023/05/20 06:38:01;;;;;;;1999.90;999.90;;;15.30;99.90;;;;;;5032190;28;20653;-70
2023/05/20 06:40:27;;;;;;;1999.90;999.90;;;15.30;99.90;;;;;;5032088;28;20404;-70
2023/05/20 06:42:53;;;;;;;1999.90;999.90;;;15.40;99.90;;;;;;5031829;28;20409;-70
2023/05/20 06:45:19;;;;;;;1999.90;999.90;;;15.50;99.90;;;;;;5032123;28;20410;-70
2023/05/20 06:47:44;;;;;;;1999.90;999.90;;;15.70;99.90;;;;;;5032013;28;20275;-70
2023/05/20 06:50:10;;;;;;;1999.90;999.90;;;15.80;99.90;;;;;;5031813;28;20216;-70
2023/05/20 06:52:36;;;;;;;1999.90;999.90;;;15.90;99.90;;;;;;5031730;28;20171;-70
2023/05/20 06:55:05;;;;;;;1999.90;999.90;;;15.90;99.90;;;;;;5031997;28;20406;-70
2023/05/20 06:57:31;;;;;;;1999.90;999.90;;;16.10;99.90;;;;;;5031885;28;20172;-70
2023/05/20 06:59:56;;;;;;;1999.90;999.90;;;16.20;99.90;;;;;;5031850;28;20457;-70
2023/05/20 07:02:22;;;;;;;1999.90;999.90;;;16.00;99.90;;;;;;5031660;28;20219;-70
2023/05/20 07:04:48;;;;;;;1999.90;999.90;;;16.20;99.90;;;;;;5031911;28;20207;-70
2023/05/20 07:07:14;;;;;;;1999.90;999.90;;;16.20;99.90;;;;;;5031755;28;20558;-70
2023/05/20 07:09:40;;;;;;;1999.90;999.90;;;16.10;99.90;;;;;;5032119;28;20404;-71
2023/05/20 07:12:06;;;;;;;1999.90;999.90;;;16.30;99.90;;;;;;5033337;28;20595;-71
2023/05/20 07:14:31;;;;;;;1999.90;999.90;;;16.50;99.90;;;;;;5032441;28;20176;-71
2023/05/20 07:16:57;;;;;;;1999.90;999.90;;;16.70;99.90;;;;;;5032899;28;20442;-71
2023/05/20 07:19:22;;;;;;;1999.90;999.90;;;16.80;99.90;;;;;;5031744;28;20180;-70
2023/05/20 07:21:48;;;;;;;1999.90;999.90;;;16.90;99.90;;;;;;5031340;28;20191;-70
2023/05/20 07:24:15;;;;;;;1999.90;999.90;;;17.00;99.90;;;;;;5031866;28;20227;-70
2023/05/20 07:26:40;;;;;;;1999.90;999.90;;;17.20;99.90;;;;;;5031600;28;20452;-70
2023/05/20 07:29:06;;;;;;;1999.90;999.90;;;17.50;99.90;;;;;;5031601;28;20403;-70
2023/05/20 07:31:32;;;;;;;1999.90;999.90;;;17.70;99.90;;;;;;5032790;28;20191;-70
2023/05/20 07:33:58;;;;;;;1999.90;999.90;;;17.80;99.90;;;;;;5035464;28;20776;-70
2023/05/20 07:36:26;;;;;;;1999.90;999.90;;;18.10;99.90;;;;;;5035619;28;20186;-70
2023/05/20 07:38:51;;;;;;;1999.90;999.90;;;18.20;99.90;;;;;;5035597;28;20202;-70
2023/05/20 07:41:17;;;;;;;1999.90;999.90;;;18.30;99.90;;;;;;5035094;28;20506;-70
2023/05/20 07:43:43;;;;;;;1999.90;999.90;;;18.40;99.90;;;;;;5035422;28;20696;-70
2023/05/20 07:46:08;;;;;;;1999.90;999.90;;;18.60;99.90;;;;;;5035277;28;20281;-70
2023/05/20 07:48:34;;;;;;;1999.90;999.90;;;18.60;99.90;;;;;;5035302;28;20270;-70
2023/05/20 07:51:00;;;;;;;1999.90;999.90;;;18.60;99.90;;;;;;5034764;28;20222;-70
2023/05/20 07:53:26;;;;;;;1999.90;999.90;;;18.60;99.90;;;;;;5035249;28;20165;-70
2023/05/20 07:55:51;;;;;;;1999.90;999.90;;;18.60;99.90;;;;;;5035223;28;20794;-70
2023/05/20 07:58:17;;;;;;;1999.90;999.90;;;18.50;99.90;;;;;;5035120;28;20219;-70
2023/05/20 08:00:43;;;;;;;1999.90;999.90;;;18.50;99.90;;;;;;5034960;28;20200;-70
2023/05/20 08:03:09;;;;;;;1999.90;999.90;;;18.50;99.90;;;;;;5034698;28;20215;-70
2023/05/20 08:05:37;;;;;;;1999.90;999.90;;;18.30;99.90;;;;;;5034987;28;20441;-70
2023/05/20 08:08:04;;;;;;;1999.90;999.90;;;18.30;99.90;;;;;;5034894;28;20177;-70
2023/05/20 08:10:29;;;;;;;1999.90;999.90;;;18.40;99.90;;;;;;5034835;28;21000;-70
2023/05/20 08:12:55;;;;;;;1999.90;999.90;;;18.50;99.90;;;;;;5034617;28;20476;-71
2023/05/20 08:15:21;;;;;;;1999.90;999.90;;;18.60;99.90;;;;;;5034767;28;20210;-71
2023/05/20 08:17:46;;;;;;;1999.90;999.90;;;18.70;99.90;;;;;;5034792;28;20185;-71
2023/05/20 08:20:13;;;;;;;1999.90;999.90;;;18.70;99.90;;;;;;5034610;28;20246;-71
2023/05/20 08:22:39;;;;;;;1999.90;999.90;;;18.80;99.90;;;;;;5034442;28;20179;-71
2023/05/20 08:25:08;;;;;;;1999.90;999.90;;;19.00;99.90;;;;;;5034693;28;20446;-71
2023/05/20 08:27:34;;;;;;;1999.90;999.90;;;19.20;99.90;;;;;;5033532;28;20458;-71
2023/05/20 08:30:00;;;;;;;1999.90;999.90;;;19.10;99.90;;;;;;5035098;28;20431;-71
2023/05/20 08:32:26;;;;;;;1999.90;999.90;;;19.10;99.90;;;;;;5034936;28;20404;-71
2023/05/20 08:34:51;;;;;;;1999.90;999.90;;;19.20;99.90;;;;;;5035361;28;20164;-71
2023/05/20 08:37:17;;;;;;;1999.90;999.90;;;19.20;99.90;;;;;;5035356;28;20639;-71
2023/05/20 08:39:45;;;;;;;1999.90;999.90;;;19.30;99.90;;;;;;5035271;28;20185;-71
2023/05/20 08:42:12;;;;;;;1999.90;999.90;;;19.40;99.90;;;;;;5034646;28;20228;-71
2023/05/20 08:44:39;;;;;;;1999.90;999.90;;;19.50;99.90;;;;;;5035193;28;20812;-71
2023/05/20 08:47:06;;;;;;;1999.90;999.90;;;19.60;99.90;;;;;;5034970;28;20538;-71
2023/05/20 08:49:32;;;;;;;1999.90;999.90;;;19.50;99.90;;;;;;5019447;28;20434;-71
2023/05/20 08:51:59;;;;;;;1999.90;999.90;;;19.50;99.90;;;;;;5009638;28;21034;-70
2023/05/20 08:54:43;;;;;;;1999.90;999.90;;;19.40;99.90;;;;;;5009776;28;20185;-69
2023/05/20 08:57:12;;;;;;;1999.90;999.90;;;19.40;99.90;;;;;;5005512;28;21276;-70
2023/05/20 08:59:47;;;;;;;1999.90;999.90;;;19.40;99.90;;;;;;5009296;28;20421;-71
2023/05/20 09:02:13;;;;;;;1999.90;999.90;;;19.50;99.90;;;;;;5021659;28;20433;-72
2023/05/20 09:04:39;;;;;;;1999.90;999.90;;;19.70;99.90;;;;;;5029048;28;20403;-71
2023/05/20 09:07:05;;;;;;;1999.90;999.90;;;19.90;99.90;;;;;;5029061;28;21038;-71
2023/05/20 09:09:34;;;;;;;1999.90;999.90;;;20.40;99.90;;;;;;5029278;28;20187;-72
2023/05/20 09:12:02;;;;;;;1999.90;999.90;;;20.60;99.90;;;;;;5029022;28;20231;-70
2023/05/20 09:14:29;;;;;;;1999.90;999.90;;;20.60;99.90;;;;;;5028950;28;20512;-71
2023/05/20 09:16:55;;;;;;;1999.90;999.90;;;20.50;99.90;;;;;;5028560;28;20415;-71
2023/05/20 09:19:24;;;;;;;1999.90;999.90;;;20.60;99.90;;;;;;5029283;28;20770;-71
2023/05/20 09:21:54;;;;;;;1999.90;999.90;;;20.60;99.90;;;;;;5011056;28;20205;-71
2023/05/20 09:24:24;;;;;;;1999.90;999.90;;;20.60;99.90;;;;;;5028644;28;20429;-70
2023/05/20 09:26:50;;;;;;;1999.90;999.90;;;20.60;99.90;;;;;;5033509;28;20945;-70
2023/05/20 09:29:15;;;;;;;1999.90;999.90;;;20.80;99.90;;;;;;5043159;28;20427;-69
2023/05/20 09:31:41;;;;;;;1999.90;999.90;;;21.00;99.90;;;;;;5040613;28;20990;-69
2023/05/20 09:34:07;;;;;;;1999.90;999.90;;;21.00;99.90;;;;;;5043050;28;20169;-73
2023/05/20 09:36:34;;;;;;;1999.90;999.90;;;20.70;99.90;;;;;;5043965;28;20579;-70
2023/05/20 09:39:03;;;;;;;1999.90;999.90;;;20.80;99.90;;;;;;5052874;28;20175;-69
2023/05/20 09:41:37;;;;;;;1999.90;999.90;;;20.90;99.90;;;;;;5052134;28;20417;-70
2023/05/20 09:44:03;;;;;;;1999.90;999.90;;;20.90;99.90;;;;;;5044333;28;20416;-70
2023/05/20 09:46:30;;;;;;;1999.90;999.90;;;20.90;99.90;;;;;;5036840;28;20503;-69
2023/05/20 09:48:56;;;;;;;1999.90;999.90;;;21.00;99.90;;;;;;5032733;28;20406;-69
2023/05/20 09:51:22;;;;;;;1999.90;999.90;;;20.70;99.90;;;;;;5032262;28;20445;-70
2023/05/20 09:53:50;;;;;;;1999.90;999.90;;;20.90;99.90;;;;;;5032425;28;20428;-70
2023/05/20 09:56:18;;;;;;;1999.90;999.90;;;20.90;99.90;;;;;;5032079;28;20755;-69
2023/05/20 09:58:46;;;;;;;1999.90;999.90;;;21.00;99.90;;;;;;5032671;28;20401;-70
2023/05/20 10:01:12;;;;;;;1999.90;999.90;;;21.20;99.90;;;;;;5039621;28;20422;-70
2023/05/20 10:03:37;;;;;;;1999.90;999.90;;;21.30;99.90;;;;;;5052124;28;20421;-70
2023/05/20 10:06:09;;;;;;;1999.90;999.90;;;21.40;99.90;;;;;;5052920;28;20425;-69
2023/05/20 10:08:46;;;;;;;1999.90;999.90;;;21.30;99.40;;;;;;5052503;28;20171;-70
2023/05/20 10:11:29;;;;;;;1999.90;999.90;;;21.20;99.90;;;;;;5052095;28;20897;-69
2023/05/20 10:14:19;;;;;;;1999.90;999.90;;;21.30;99.90;;;;;;5052641;28;20400;-70
2023/05/20 10:16:56;;;;;;;1999.90;999.90;;;21.50;99.90;;;;;;5052428;28;20773;-70
2023/05/20 10:19:32;;;;;;;1999.90;999.90;;;21.90;99.70;;;;;;5052895;28;20400;-70
2023/05/20 10:22:13;;;;;;;1999.90;999.90;;;22.00;97.80;;;;;;5052217;28;20959;-70
2023/05/20 10:24:40;;;;;;;1999.90;999.90;;;22.20;98.20;;;;;;5052136;28;20377;-70
2023/05/20 10:27:11;;;;;;;1999.90;999.90;;;22.40;97.90;;;;;;5052590;28;20449;-70
2023/05/20 10:29:50;;;;;;;1999.90;999.90;;;22.70;98.00;;;;;;5052392;28;20445;-69
2023/05/20 10:32:28;;;;;;;1999.90;999.90;;;22.80;95.70;;;;;;5052042;28;20415;-70
2023/05/20 10:35:07;;;;;;;1999.90;999.90;;;23.00;94.90;;;;;;5044469;28;20913;-70
2023/05/20 10:37:41;;;;;;;1999.90;999.90;;;23.10;92.70;;;;;;5043947;28;20775;-69
2023/05/20 10:40:11;;;;;;;1999.90;999.90;;;23.20;91.90;;;;;;5052081;28;20410;-70
2023/05/20 10:42:37;;;;;;;1999.90;999.90;;;23.10;91.80;;;;;;5045302;28;20797;-69
2023/05/20 10:45:05;;;;;;;1999.90;999.90;;;23.20;92.60;;;;;;5032568;28;20389;-69
2023/05/20 10:47:31;;;;;;;1999.90;999.90;;;23.40;90.60;;;;;;5031973;28;20425;-70
2023/05/20 10:49:57;;;;;;;1999.90;999.90;;;23.50;88.20;;;;;;5032093;28;20407;-70
2023/05/20 10:52:24;;;;;;;1999.90;999.90;;;23.60;87.90;;;;;;5032042;28;20378;-70
2023/05/20 10:54:57;;;;;;;1999.90;999.90;;;23.80;84.70;;;;;;5031577;28;20435;-70
2023/05/20 10:57:24;;;;;;;1999.90;999.90;;;24.00;86.60;;;;;;5032287;28;20439;-70
2023/05/20 10:59:50;;;;;;;1999.90;999.90;;;24.30;83.60;;;;;;5032206;28;20377;-70
2023/05/20 11:02:17;;;;;;;1999.90;999.90;;;24.70;82.40;;;;;;5031832;28;20813;-69
2023/05/20 11:04:43;;;;;;;1999.90;999.90;;;24.80;72.70;;;;;;5032177;28;20374;-70
2023/05/20 11:07:09;;;;;;;1999.90;999.90;;;24.80;70.70;;;;;;5031150;28;20443;-70
2023/05/20 11:09:35;;;;;;;1999.90;999.90;;;24.60;72.40;;;;;;5031672;28;20388;-70
2023/05/20 11:12:01;;;;;;;1999.90;999.90;;;24.50;69.80;;;;;;5031728;28;20670;-69
2023/05/20 11:14:29;;;;;;;1999.90;999.90;;;24.50;68.90;;;;;;5032259;28;20168;-70
2023/05/20 11:16:57;;;;;;;1999.90;999.90;;;24.60;71.10;;;;;;5031590;28;20930;-70
2023/05/20 11:19:23;;;;;;;1999.90;999.90;;;24.70;69.50;;;;;;5032197;28;20378;-70
2023/05/20 11:21:48;;;;;;;1999.90;999.90;;;24.50;64.80;;;;;;5031631;28;20448;-70
2023/05/20 11:24:23;;;;;;;1999.90;999.90;;;24.30;65.50;;;;;;5031395;28;20200;-70
2023/05/20 11:26:49;;;;;;;1999.90;999.90;;;24.20;68.30;;;;;;5032019;28;20198;-70
2023/05/20 11:29:16;;;;;;;1999.90;999.90;;;24.30;69.60;;;;;;5032123;28;20403;-70
2023/05/20 11:31:42;;;;;;;1999.90;999.90;;;24.40;70.00;;;;;;5031095;28;20845;-70
2023/05/20 11:34:07;;;;;;;1999.90;999.90;;;24.60;69.30;;;;;;5032009;28;20379;-70
2023/05/20 11:36:33;;;;;;;1999.90;999.90;;;24.70;69.50;;;;;;5031850;28;20634;-70
2023/05/20 11:38:59;;;;;;;1999.90;999.90;;;24.80;67.30;;;;;;5031280;28;20540;-70
2023/05/20 11:41:26;;;;;;;1999.90;999.90;;;24.90;64.00;;;;;;5031421;28;20609;-69
2023/05/20 11:43:59;;;;;;;1999.90;999.90;;;24.90;63.30;;;;;;5034371;28;20416;-70
2023/05/20 11:46:25;;;;;;;1999.90;999.90;;;24.70;60.40;;;;;;5049301;28;20481;-70
2023/05/20 11:48:54;;;;;;;1999.90;999.90;;;24.50;62.20;;;;;;5051566;28;20398;-70
2023/05/20 11:51:27;;;;;;;1999.90;999.90;;;24.60;65.20;;;;;;5051117;28;20434;-70
2023/05/20 11:53:59;;;;;;;1999.90;999.90;;;24.80;65.70;;;;;;5051587;28;20937;-71
2023/05/20 11:56:27;;;;;;;1999.90;999.90;;;25.10;64.40;;;;;;5051883;28;20422;-70